sensor_id;sensor_type;location;lat;lon;timestamp;pressure;altitude;pressure_sealevel;temperature;humidity
48872;BME280;36154;51.674;7.824;2023-05-17T00:01:29;101485.03;;;22.46;40.21
48872;BME280;36154;51.674;7.824;2023-05-17T00:03:55;101489.38;;;22.45;40.19
48872;BME280;36154;51.674;7.824;2023-05-17T00:06:21;101482.50;;;22.43;40.52
48872;BME280;36154;51.674;7.824;2023-05-17T00:08:46;101482.47;;;22.44;40.44
48872;BME280;36154;51.674;7.824;2023-05-17T00:11:11;101479.88;;;22.44;40.29
48872;BME280;36154;51.674;7.824;2023-05-17T00:13:36;101482.47;;;22.44;40.41
48872;BME280;36154;51.674;7.824;2023-05-17T00:16:03;101482.47;;;22.44;40.40
48872;BME280;36154;51.674;7.824;2023-05-17T00:18:28;101485.06;;;22.44;40.10
48872;BME280;36154;51.674;7.824;2023-05-17T00:20:53;101484.22;;;22.44;40.59
48872;BME280;36154;51.674;7.824;2023-05-17T00:23:18;101487.66;;;22.44;40.52
48872;BME280;36154;51.674;7.824;2023-05-17T00:25:44;101485.97;;;22.43;40.29
48872;BME280;36154;51.674;7.824;2023-05-17T00:28:10;101482.50;;;22.43;40.50
48872;BME280;36154;51.674;7.824;2023-05-17T00:30:38;101485.97;;;22.43;40.37
48872;BME280;36154;51.674;7.824;2023-05-17T00:33:03;101482.59;;;22.40;40.35
48872;BME280;36154;51.674;7.824;2023-05-17T00:35:29;101480.78;;;22.43;40.36
48872;BME280;36154;51.674;7.824;2023-05-17T00:37:54;101488.56;;;22.43;40.45
48872;BME280;36154;51.674;7.824;2023-05-17T00:40:20;101483.38;;;22.43;40.51
48872;BME280;36154;51.674;7.824;2023-05-17T00:42:46;101480.81;;;22.42;40.52
48872;BME280;36154;51.674;7.824;2023-05-17T00:45:11;101473.94;;;22.39;40.58
48872;BME280;36154;51.674;7.824;2023-05-17T00:47:36;101480.78;;;22.43;40.48
48872;BME280;36154;51.674;7.824;2023-05-17T00:50:02;101479.06;;;22.42;40.50
48872;BME280;36154;51.674;7.824;2023-05-17T00:52:27;101479.06;;;22.42;40.45
48872;BME280;36154;51.674;7.824;2023-05-17T00:54:53;101484.25;;;22.42;40.65
48872;BME280;36154;51.674;7.824;2023-05-17T00:57:18;101475.63;;;22.42;40.61
48872;BME280;36154;51.674;7.824;2023-05-17T00:59:44;101476.50;;;22.41;40.60
48872;BME280;36154;51.674;7.824;2023-05-17T01:02:10;101472.19;;;22.41;40.53
48872;BME280;36154;51.674;7.824;2023-05-17T01:04:36;101475.66;;;22.40;40.65
48872;BME280;36154;51.674;7.824;2023-05-17T01:07:02;101467.00;;;22.41;40.51
48872;BME280;36154;51.674;7.824;2023-05-17T01:09:27;101469.59;;;22.41;40.51
48872;BME280;36154;51.674;7.824;2023-05-17T01:14:46;101467.00;;;22.41;40.49
48872;BME280;36154;51.674;7.824;2023-05-17T01:17:18;101462.72;;;22.39;40.59
48872;BME280;36154;51.674;7.824;2023-05-17T01:19:56;101469.63;;;22.40;40.52
48872;BME280;36154;51.674;7.824;2023-05-17T01:27:35;101470.59;;;22.34;40.68
48872;BME280;36154;51.674;7.824;2023-05-17T01:30:01;101480.97;;;22.34;40.58
48872;BME280;36154;51.674;7.824;2023-05-17T01:32:27;101486.94;;;22.38;40.73
48872;BME280;36154;51.674;7.824;2023-05-17T01:34:54;101489.59;;;22.36;40.76
48872;BME280;36154;51.674;7.824;2023-05-17T01:37:21;101491.31;;;22.37;40.66
48872;BME280;36154;51.674;7.824;2023-05-17T01:39:47;101491.31;;;22.37;40.56
48872;BME280;36154;51.674;7.824;2023-05-17T01:47:42;101495.63;;;22.38;40.78
48872;BME280;36154;51.674;7.824;2023-05-17T01:50:11;101506.84;;;22.39;40.70
48872;BME280;36154;51.674;7.824;2023-05-17T01:52:52;101502.53;;;22.38;40.85
48872;BME280;36154;51.674;7.824;2023-05-17T01:57:54;101506.88;;;22.37;40.83
48872;BME280;36154;51.674;7.824;2023-05-17T02:00:21;101503.47;;;22.35;40.71
48872;BME280;36154;51.674;7.824;2023-05-17T02:02:46;101511.22;;;22.37;40.67
48872;BME280;36154;51.674;7.824;2023-05-17T02:05:11;101506.88;;;22.37;40.96
48872;BME280;36154;51.674;7.824;2023-05-17T02:07:37;101516.38;;;22.38;40.96
48872;BME280;36154;51.674;7.824;2023-05-17T02:10:04;101519.84;;;22.37;40.68
48872;BME280;36154;51.674;7.824;2023-05-17T02:12:29;101517.25;;;22.37;40.69
48872;BME280;36154;51.674;7.824;2023-05-17T02:14:54;101518.09;;;22.38;40.80
48872;BME280;36154;51.674;7.824;2023-05-17T02:17:20;101523.31;;;22.38;40.71
48872;BME280;36154;51.674;7.824;2023-05-17T02:19:45;101518.16;;;22.36;40.82
48872;BME280;36154;51.674;7.824;2023-05-17T02:22:10;101520.75;;;22.36;40.89
48872;BME280;36154;51.674;7.824;2023-05-17T02:24:35;101525.94;;;22.36;40.85
48872;BME280;36154;51.674;7.824;2023-05-17T02:27:03;101522.47;;;22.37;41.03
48872;BME280;36154;51.674;7.824;2023-05-17T02:29:28;101525.94;;;22.36;40.82
48872;BME280;36154;51.674;7.824;2023-05-17T02:31:54;101524.25;;;22.35;40.94
48872;BME280;36154;51.674;7.824;2023-05-17T02:34:19;101525.09;;;22.36;40.69
48872;BME280;36154;51.674;7.824;2023-05-17T02:36:44;101527.69;;;22.36;40.79
48872;BME280;36154;51.674;7.824;2023-05-17T02:39:10;101526.84;;;22.35;40.86
48872;BME280;36154;51.674;7.824;2023-05-17T02:41:35;101528.53;;;22.36;40.99
48872;BME280;36154;51.674;7.824;2023-05-17T02:44:00;101529.44;;;22.35;40.97
48872;BME280;36154;51.674;7.824;2023-05-17T02:46:25;101529.44;;;22.35;40.91
48872;BME280;36154;51.674;7.824;2023-05-17T02:48:51;101529.44;;;22.35;40.93
48872;BME280;36154;51.674;7.824;2023-05-17T02:51:16;101529.44;;;22.35;40.92
48872;BME280;36154;51.674;7.824;2023-05-17T02:53:41;101543.28;;;22.34;40.84
48872;BME280;36154;51.674;7.824;2023-05-17T02:56:07;101537.22;;;22.35;40.88
48872;BME280;36154;51.674;7.824;2023-05-17T02:58:32;101534.63;;;22.35;40.98
48872;BME280;36154;51.674;7.824;2023-05-17T03:00:57;101538.09;;;22.34;40.78
48872;BME280;36154;51.674;7.824;2023-05-17T03:03:23;101544.16;;;22.34;40.93
48872;BME280;36154;51.674;7.824;2023-05-17T03:05:48;101538.97;;;22.34;41.05
48872;BME280;36154;51.674;7.824;2023-05-17T03:08:13;101546.75;;;22.34;41.02
48872;BME280;36154;51.674;7.824;2023-05-17T03:10:38;101545.88;;;22.34;41.06
48872;BME280;36154;51.674;7.824;2023-05-17T03:13:04;101553.69;;;22.34;40.86
48872;BME280;36154;51.674;7.824;2023-05-17T03:15:29;101543.28;;;22.34;41.06
48872;BME280;36154;51.674;7.824;2023-05-17T03:17:55;101546.78;;;22.33;41.02
48872;BME280;36154;51.674;7.824;2023-05-17T03:20:21;101552.00;;;22.33;41.13
48872;BME280;36154;51.674;7.824;2023-05-17T03:22:46;101549.41;;;22.33;41.00
48872;BME280;36154;51.674;7.824;2023-05-17T03:25:12;101563.22;;;22.33;40.92
48872;BME280;36154;51.674;7.824;2023-05-17T03:27:37;101557.19;;;22.33;40.81
48872;BME280;36154;51.674;7.824;2023-05-17T03:30:02;101562.38;;;22.33;40.91
48872;BME280;36154;51.674;7.824;2023-05-17T03:32:28;101567.56;;;22.33;41.06
48872;BME280;36154;51.674;7.824;2023-05-17T03:34:53;101566.69;;;22.32;41.02
48872;BME280;36154;51.674;7.824;2023-05-17T03:37:18;101567.56;;;22.33;41.05
48872;BME280;36154;51.674;7.824;2023-05-17T03:39:43;101571.03;;;22.32;41.03
48872;BME280;36154;51.674;7.824;2023-05-17T03:42:09;101577.94;;;22.33;41.05
48872;BME280;36154;51.674;7.824;2023-05-17T03:44:34;101572.78;;;22.31;40.83
48872;BME280;36154;51.674;7.824;2023-05-17T03:46:59;101581.44;;;22.32;41.03
48872;BME280;36154;51.674;7.824;2023-05-17T03:49:25;101579.69;;;22.32;41.12
48872;BME280;36154;51.674;7.824;2023-05-17T03:51:50;101582.28;;;22.32;41.16
48872;BME280;36154;51.674;7.824;2023-05-17T03:54:15;101579.69;;;22.31;41.22
48872;BME280;36154;51.674;7.824;2023-05-17T03:56:40;101588.34;;;22.33;41.22
48872;BME280;36154;51.674;7.824;2023-05-17T03:59:11;101573.69;;;22.29;40.98
48872;BME280;36154;51.674;7.824;2023-05-17T04:01:36;101591.81;;;22.32;41.24
48872;BME280;36154;51.674;7.824;2023-05-17T04:04:01;101584.91;;;22.31;41.28
48872;BME280;36154;51.674;7.824;2023-05-17T04:06:28;101595.28;;;22.31;41.07
48872;BME280;36154;51.674;7.824;2023-05-17T04:08:53;101591.88;;;22.29;41.16
48872;BME280;36154;51.674;7.824;2023-05-17T04:11:19;101599.59;;;22.32;41.31
48872;BME280;36154;51.674;7.824;2023-05-17T04:13:48;101598.75;;;22.31;40.86
48872;BME280;36154;51.674;7.824;2023-05-17T04:16:13;101603.91;;;22.33;41.17
48872;BME280;36154;51.674;7.824;2023-05-17T04:18:39;101600.47;;;22.31;41.40
48872;BME280;36154;51.674;7.824;2023-05-17T04:21:05;101605.59;;;22.34;41.22
48872;BME280;36154;51.674;7.824;2023-05-17T04:23:31;101610.81;;;22.34;41.19
48872;BME280;36154;51.674;7.824;2023-05-17T04:25:57;101610.81;;;22.34;41.44
48872;BME280;36154;51.674;7.824;2023-05-17T04:28:23;101614.34;;;22.31;39.93
48872;BME280;36154;51.674;7.824;2023-05-17T04:30:48;101621.63;;;22.12;38.53
48872;BME280;36154;51.674;7.824;2023-05-17T04:33:13;101625.53;;;21.87;37.51
48872;BME280;36154;51.674;7.824;2023-05-17T04:35:40;101634.66;;;21.61;36.89
48872;BME280;36154;51.674;7.824;2023-05-17T04:38:08;101629.94;;;21.33;36.97
48872;BME280;36154;51.674;7.824;2023-05-17T04:40:34;101626.81;;;21.10;36.94
48872;BME280;36154;51.674;7.824;2023-05-17T04:42:59;101631.47;;;20.88;37.16
48872;BME280;36154;51.674;7.824;2023-05-17T04:45:25;101643.72;;;20.75;37.18
48872;BME280;36154;51.674;7.824;2023-05-17T04:47:50;101651.69;;;20.59;37.33
48872;BME280;36154;51.674;7.824;2023-05-17T04:50:17;101645.88;;;20.40;37.49
48872;BME280;36154;51.674;7.824;2023-05-17T04:52:43;101652.06;;;20.25;37.55
48872;BME280;36154;51.674;7.824;2023-05-17T04:55:08;101656.50;;;20.12;37.80
48872;BME280;36154;51.674;7.824;2023-05-17T04:57:34;101664.41;;;20.02;38.07
48872;BME280;36154;51.674;7.824;2023-05-17T05:00:01;101659.31;;;19.89;38.16
48872;BME280;36154;51.674;7.824;2023-05-17T05:02:29;101666.34;;;19.78;38.22
48872;BME280;36154;51.674;7.824;2023-05-17T05:04:54;101656.06;;;19.69;38.36
48872;BME280;36154;51.674;7.824;2023-05-17T05:10:35;101661.41;;;19.44;38.84
48872;BME280;36154;51.674;7.824;2023-05-17T05:13:01;101670.09;;;19.37;39.34
48872;BME280;36154;51.674;7.824;2023-05-17T05:15:27;101669.28;;;19.27;39.01
48872;BME280;36154;51.674;7.824;2023-05-17T05:24:35;101675.50;;;18.97;39.30
48872;BME280;36154;51.674;7.824;2023-05-17T05:27:01;101686.66;;;19.00;39.76
48872;BME280;36154;51.674;7.824;2023-05-17T05:29:26;101694.38;;;19.14;40.28
48872;BME280;36154;51.674;7.824;2023-05-17T05:31:51;101694.25;;;19.30;40.62
48872;BME280;36154;51.674;7.824;2023-05-17T05:34:17;101695.88;;;19.46;40.48
48872;BME280;36154;51.674;7.824;2023-05-17T05:36:42;101700.09;;;19.60;40.85
48872;BME280;36154;51.674;7.824;2023-05-17T05:39:08;101698.28;;;19.72;41.27
48872;BME280;36154;51.674;7.824;2023-05-17T05:41:34;101702.47;;;19.84;41.20
48872;BME280;36154;51.674;7.824;2023-05-17T05:44:00;101700.66;;;19.96;41.20
48872;BME280;36154;51.674;7.824;2023-05-17T05:46:25;101704.88;;;20.07;40.96
48872;BME280;36154;51.674;7.824;2023-05-17T05:48:51;101709.97;;;20.15;41.17
48872;BME280;36154;51.674;7.824;2023-05-17T05:51:16;101710.69;;;20.26;41.33
48872;BME280;36154;51.674;7.824;2023-05-17T05:53:43;101707.19;;;20.34;41.16
48872;BME280;36154;51.674;7.824;2023-05-17T05:56:09;101707.97;;;20.42;40.97
48872;BME280;36154;51.674;7.824;2023-05-17T05:58:35;101714.81;;;20.49;41.41
48872;BME280;36154;51.674;7.824;2023-05-17T06:01:00;101710.44;;;20.54;41.20
48872;BME280;36154;51.674;7.824;2023-05-17T06:03:26;101717.25;;;20.63;41.25
48872;BME280;36154;51.674;7.824;2023-05-17T06:05:51;101716.31;;;20.68;41.34
48872;BME280;36154;51.674;7.824;2023-05-17T06:08:16;101726.59;;;20.73;41.31
48872;BME280;36154;51.674;7.824;2023-05-17T06:10:42;101729.97;;;20.80;41.13
48872;BME280;36154;51.674;7.824;2023-05-17T06:13:07;101731.66;;;20.85;41.18
48872;BME280;36154;51.674;7.824;2023-05-17T06:15:32;101733.28;;;20.91;41.00
48872;BME280;36154;51.674;7.824;2023-05-17T06:17:58;101731.50;;;20.96;40.96
48872;BME280;36154;51.674;7.824;2023-05-17T06:20:23;101743.56;;;21.00;40.99
48872;BME280;36154;51.674;7.824;2023-05-17T06:22:48;101739.22;;;21.02;41.19
48872;BME280;36154;51.674;7.824;2023-05-17T06:25:14;101747.78;;;21.08;41.09
48872;BME280;36154;51.674;7.824;2023-05-17T06:27:39;101748.59;;;21.11;40.86
48872;BME280;36154;51.674;7.824;2023-05-17T06:30:05;101754.59;;;21.15;40.73
48872;BME280;36154;51.674;7.824;2023-05-17T06:32:31;101755.41;;;21.17;40.80
48872;BME280;36154;51.674;7.824;2023-05-17T06:34:56;101750.22;;;21.18;40.80
48872;BME280;36154;51.674;7.824;2023-05-17T06:37:22;101753.59;;;21.22;40.72
48872;BME280;36154;51.674;7.824;2023-05-17T06:39:52;101749.28;;;21.24;40.59
48872;BME280;36154;51.674;7.824;2023-05-17T06:42:17;101752.69;;;21.28;40.63
48872;BME280;36154;51.674;7.824;2023-05-17T06:44:42;101747.50;;;21.29;40.78
48872;BME280;36154;51.674;7.824;2023-05-17T06:47:08;101748.34;;;21.31;40.67
48872;BME280;36154;51.674;7.824;2023-05-17T06:49:33;101756.09;;;21.34;40.62
48872;BME280;36154;51.674;7.824;2023-05-17T06:51:59;101761.22;;;21.37;40.62
48872;BME280;36154;51.674;7.824;2023-05-17T06:54:28;101761.22;;;21.39;40.54
48872;BME280;36154;51.674;7.824;2023-05-17T06:56:53;101758.56;;;21.40;40.53
48872;BME280;36154;51.674;7.824;2023-05-17T06:59:19;101758.53;;;21.42;40.70
48872;BME280;36154;51.674;7.824;2023-05-17T07:01:44;101763.69;;;21.45;40.51
48872;BME280;36154;51.674;7.824;2023-05-17T07:04:09;101757.63;;;21.48;40.53
48872;BME280;36154;51.674;7.824;2023-05-17T07:06:35;101764.50;;;21.49;40.46
48872;BME280;36154;51.674;7.824;2023-05-17T07:09:00;101767.94;;;21.51;40.49
48872;BME280;36154;51.674;7.824;2023-05-17T07:11:26;101768.81;;;21.51;40.45
48872;BME280;36154;51.674;7.824;2023-05-17T07:13:51;101769.59;;;21.55;40.40
48872;BME280;36154;51.674;7.824;2023-05-17T07:16:16;101780.81;;;21.55;40.70
48872;BME280;36154;51.674;7.824;2023-05-17T07:18:41;101778.22;;;21.57;40.39
48872;BME280;36154;51.674;7.824;2023-05-17T07:21:07;101774.75;;;21.58;40.42
48872;BME280;36154;51.674;7.824;2023-05-17T07:23:32;101773.84;;;21.59;40.42
48872;BME280;36154;51.674;7.824;2023-05-17T07:25:57;101787.69;;;21.61;40.48
48872;BME280;36154;51.674;7.824;2023-05-17T07:28:23;101789.38;;;21.62;40.29
48872;BME280;36154;51.674;7.824;2023-05-17T07:30:48;101790.22;;;21.64;40.41
48872;BME280;36154;51.674;7.824;2023-05-17T07:33:13;101791.06;;;21.65;40.31
48872;BME280;36154;51.674;7.824;2023-05-17T07:35:38;101791.94;;;21.65;40.32
48872;BME280;36154;51.674;7.824;2023-05-17T07:38:04;101800.53;;;21.67;40.30
48872;BME280;36154;51.674;7.824;2023-05-17T07:40:29;101795.34;;;21.67;40.30
48872;BME280;36154;51.674;7.824;2023-05-17T07:42:54;101797.06;;;21.68;40.22
48872;BME280;36154;51.674;7.824;2023-05-17T07:45:20;101791.03;;;21.68;40.38
48872;BME280;36154;51.674;7.824;2023-05-17T07:48:13;101805.69;;;21.70;40.33
48872;BME280;36154;51.674;7.824;2023-05-17T07:50:38;101812.59;;;21.71;40.35
48872;BME280;36154;51.674;7.824;2023-05-17T07:53:04;101810.00;;;21.71;40.28
48872;BME280;36154;51.674;7.824;2023-05-17T07:55:29;101809.09;;;21.72;40.25
48872;BME280;36154;51.674;7.824;2023-05-17T07:57:54;101816.00;;;21.73;40.29
48872;BME280;36154;51.674;7.824;2023-05-17T08:00:20;101807.38;;;21.74;40.32
48872;BME280;36154;51.674;7.824;2023-05-17T08:02:46;101824.63;;;21.75;40.38
48872;BME280;36154;51.674;7.824;2023-05-17T08:05:12;101814.22;;;21.77;40.30
48872;BME280;36154;51.674;7.824;2023-05-17T08:07:37;101824.59;;;21.78;40.31
48872;BME280;36154;51.674;7.824;2023-05-17T08:10:02;101821.16;;;21.78;40.36
48872;BME280;36154;51.674;7.824;2023-05-17T08:12:28;101825.44;;;21.79;40.31
48872;BME280;36154;51.674;7.824;2023-05-17T08:14:53;101826.31;;;21.79;40.27
48872;BME280;36154;51.674;7.824;2023-05-17T08:17:19;101821.94;;;21.82;40.25
48872;BME280;36154;51.674;7.824;2023-05-17T08:19:44;101827.97;;;21.84;40.21
48872;BME280;36154;51.674;7.824;2023-05-17T08:22:09;101832.31;;;21.83;40.29
48872;BME280;36154;51.674;7.824;2023-05-17T08:24:35;101828.84;;;21.84;40.24
48872;BME280;36154;51.674;7.824;2023-05-17T08:27:00;101836.56;;;21.86;40.30
48872;BME280;36154;51.674;7.824;2023-05-17T08:29:26;101831.34;;;21.89;40.17
48872;BME280;36154;51.674;7.824;2023-05-17T08:31:53;101836.53;;;21.89;40.22
48872;BME280;36154;51.674;7.824;2023-05-17T08:34:18;101840.84;;;21.91;40.25
48872;BME280;36154;51.674;7.824;2023-05-17T08:36:44;101840.78;;;21.94;40.26
48872;BME280;36154;51.674;7.824;2023-05-17T08:39:10;101827.84;;;21.93;40.36
48872;BME280;36154;51.674;7.824;2023-05-17T08:41:36;101831.25;;;21.95;40.32
48872;BME280;36154;51.674;7.824;2023-05-17T08:44:02;101839.88;;;21.97;40.18
48872;BME280;36154;51.674;7.824;2023-05-17T08:46:32;101839.88;;;21.97;40.24
48872;BME280;36154;51.674;7.824;2023-05-17T08:48:59;101836.41;;;21.98;40.34
48872;BME280;36154;51.674;7.824;2023-05-17T08:51:26;101845.88;;;21.99;40.36
48872;BME280;36154;51.674;7.824;2023-05-17T08:53:51;101844.16;;;22.00;40.39
48872;BME280;36154;51.674;7.824;2023-05-17T08:56:19;101834.63;;;22.00;40.39
48872;BME280;36154;51.674;7.824;2023-05-17T08:58:46;101846.75;;;22.01;40.15
48872;BME280;36154;51.674;7.824;2023-05-17T09:01:13;101859.72;;;22.01;40.31
48872;BME280;36154;51.674;7.824;2023-05-17T09:03:41;101851.94;;;22.01;40.07
48872;BME280;36154;51.674;7.824;2023-05-17T09:06:09;101853.63;;;22.02;40.38
48872;BME280;36154;51.674;7.824;2023-05-17T09:08:36;101857.94;;;22.03;40.65
48872;BME280;36154;51.674;7.824;2023-05-17T09:11:01;101862.25;;;22.04;40.72
48872;BME280;36154;51.674;7.824;2023-05-17T09:16:55;101844.97;;;22.06;41.11
48872;BME280;36154;51.674;7.824;2023-05-17T09:19:21;101857.91;;;22.08;40.81
48872;BME280;36154;51.674;7.824;2023-05-17T09:21:46;101856.16;;;22.08;41.36
48872;BME280;36154;51.674;7.824;2023-05-17T09:24:12;101853.56;;;22.10;41.68
48872;BME280;36154;51.674;7.824;2023-05-17T09:26:42;101856.13;;;22.11;41.27
48872;BME280;36154;51.674;7.824;2023-05-17T09:29:12;101845.75;;;22.11;41.72
48872;BME280;36154;51.674;7.824;2023-05-17T09:31:39;101846.56;;;22.13;41.79
48872;BME280;36154;51.674;7.824;2023-05-17T09:34:05;101845.69;;;22.16;41.74
48872;BME280;36154;51.674;7.824;2023-05-17T09:36:40;101844.78;;;22.15;41.94
48872;BME280;36154;51.674;7.824;2023-05-17T09:39:06;101844.78;;;22.15;41.92
48872;BME280;36154;51.674;7.824;2023-05-17T09:41:44;101849.16;;;22.15;41.83
48872;BME280;36154;51.674;7.824;2023-05-17T09:44:11;101851.72;;;22.17;41.79
48872;BME280;36154;51.674;7.824;2023-05-17T09:46:38;101862.09;;;22.17;41.89
48872;BME280;36154;51.674;7.824;2023-05-17T09:49:05;101853.50;;;22.14;41.83
48872;BME280;36154;51.674;7.824;2023-05-17T09:51:36;101860.34;;;22.17;42.18
48872;BME280;36154;51.674;7.824;2023-05-17T09:54:02;101859.47;;;22.18;42.17
48872;BME280;36154;51.674;7.824;2023-05-17T09:56:28;101847.34;;;22.19;41.99
48872;BME280;36154;51.674;7.824;2023-05-17T09:58:54;101855.97;;;22.19;42.15
48872;BME280;36154;51.674;7.824;2023-05-17T10:01:20;101836.19;;;22.13;42.02
48872;BME280;36154;51.674;7.824;2023-05-17T10:03:46;101851.66;;;22.20;42.14
48872;BME280;36154;51.674;7.824;2023-05-17T10:06:13;101846.47;;;22.20;42.13
48872;BME280;36154;51.674;7.824;2023-05-17T10:08:43;101844.72;;;22.22;42.50
48872;BME280;36154;51.674;7.824;2023-05-17T10:11:09;101849.06;;;22.21;42.27
48872;BME280;36154;51.674;7.824;2023-05-17T10:13:41;101841.25;;;22.23;42.53
48872;BME280;36154;51.674;7.824;2023-05-17T10:16:09;101841.25;;;22.23;42.67
48872;BME280;36154;51.674;7.824;2023-05-17T10:18:35;101841.25;;;22.23;42.55
48872;BME280;36154;51.674;7.824;2023-05-17T10:21:02;101843.78;;;22.24;42.67
48872;BME280;36154;51.674;7.824;2023-05-17T10:23:28;101834.28;;;22.25;42.50
48872;BME280;36154;51.674;7.824;2023-05-17T10:25:54;101848.94;;;22.27;42.61
48872;BME280;36154;51.674;7.824;2023-05-17T10:28:20;101833.34;;;22.27;42.50
48872;BME280;36154;51.674;7.824;2023-05-17T10:30:46;101829.03;;;22.28;42.31
48872;BME280;36154;51.674;7.824;2023-05-17T10:33:14;101833.34;;;22.27;42.49
48872;BME280;36154;51.674;7.824;2023-05-17T10:35:42;101822.13;;;22.27;42.31
48872;BME280;36154;51.674;7.824;2023-05-17T10:38:08;101833.31;;;22.30;42.32
48872;BME280;36154;51.674;7.824;2023-05-17T10:40:33;101833.28;;;22.32;42.44
48872;BME280;36154;51.674;7.824;2023-05-17T10:43:01;101827.22;;;22.33;42.38
48872;BME280;36154;51.674;7.824;2023-05-17T10:45:27;101836.69;;;22.34;42.45
48872;BME280;36154;51.674;7.824;2023-05-17T10:47:53;101828.91;;;22.34;42.46
48872;BME280;36154;51.674;7.824;2023-05-17T10:50:25;101837.53;;;22.36;42.55
48872;BME280;36154;51.674;7.824;2023-05-17T10:52:52;101836.69;;;22.36;42.31
48872;BME280;36154;51.674;7.824;2023-05-17T10:55:22;101836.69;;;22.36;42.42
48872;BME280;36154;51.674;7.824;2023-05-17T11:00:38;101835.78;;;22.38;42.33
48872;BME280;36154;51.674;7.824;2023-05-17T11:03:11;101833.16;;;22.40;42.38
48872;BME280;36154;51.674;7.824;2023-05-17T11:05:40;101828.81;;;22.40;42.29
48872;BME280;36154;51.674;7.824;2023-05-17T11:08:16;101826.22;;;22.40;42.33
48872;BME280;36154;51.674;7.824;2023-05-17T11:11:12;101826.19;;;22.42;42.01
48872;BME280;36154;51.674;7.824;2023-05-17T11:13:50;101820.16;;;22.41;42.22
48872;BME280;36154;51.674;7.824;2023-05-17T11:16:17;101826.22;;;22.40;42.00
48872;BME280;36154;51.674;7.824;2023-05-17T11:18:45;101822.75;;;22.41;41.90
48872;BME280;36154;51.674;7.824;2023-05-17T11:21:12;101818.41;;;22.42;42.01
48872;BME280;36154;51.674;7.824;2023-05-17T11:23:39;101821.84;;;22.42;41.93
48872;BME280;36154;51.674;7.824;2023-05-17T11:26:27;101821.84;;;22.42;41.91
48872;BME280;36154;51.674;7.824;2023-05-17T11:29:01;101821.84;;;22.42;41.95
48872;BME280;36154;51.674;7.824;2023-05-17T11:31:31;101832.22;;;22.42;41.93
48872;BME280;36154;51.674;7.824;2023-05-17T11:33:57;101824.41;;;22.44;42.05
48872;BME280;36154;51.674;7.824;2023-05-17T11:36:23;101831.34;;;22.45;42.33
48872;BME280;36154;51.674;7.824;2023-05-17T11:39:08;101834.78;;;22.45;42.31
48872;BME280;36154;51.674;7.824;2023-05-17T11:41:36;101830.41;;;22.47;42.25
48872;BME280;36154;51.674;7.824;2023-05-17T11:44:02;101825.22;;;22.47;42.82
48872;BME280;36154;51.674;7.824;2023-05-17T11:46:29;101826.94;;;22.48;43.06
48872;BME280;36154;51.674;7.824;2023-05-17T11:48:56;101822.56;;;22.50;43.03
48872;BME280;36154;51.674;7.824;2023-05-17T11:51:22;101820.84;;;22.49;43.50
48872;BME280;36154;51.674;7.824;2023-05-17T11:53:48;101823.38;;;22.52;43.56
48872;BME280;36154;51.674;7.824;2023-05-17T11:56:15;101832.06;;;22.53;44.15
48872;BME280;36154;51.674;7.824;2023-05-17T11:58:41;101826.84;;;22.55;44.08
48872;BME280;36154;51.674;7.824;2023-05-17T12:01:07;101831.09;;;22.57;44.22
48872;BME280;36154;51.674;7.824;2023-05-17T12:03:33;101818.19;;;22.52;44.46
48872;BME280;36154;51.674;7.824;2023-05-17T12:08:35;101818.09;;;22.59;44.29
48872;BME280;36154;51.674;7.824;2023-05-17T12:11:02;101815.47;;;22.60;44.23
48872;BME280;36154;51.674;7.824;2023-05-17T12:13:30;101816.31;;;22.61;44.37
48872;BME280;36154;51.674;7.824;2023-05-17T12:15:56;101815.53;;;22.56;44.19
48872;BME280;36154;51.674;7.824;2023-05-17T12:18:36;101822.38;;;22.61;44.38
48872;BME280;36154;51.674;7.824;2023-05-17T12:21:02;101825.00;;;22.60;44.16
48872;BME280;36154;51.674;7.824;2023-05-17T12:23:29;101819.81;;;22.60;44.39
48872;BME280;36154;51.674;7.824;2023-05-17T12:26:22;101818.88;;;22.62;44.33
48872;BME280;36154;51.674;7.824;2023-05-17T12:28:58;101819.72;;;22.63;44.08
48872;BME280;36154;51.674;7.824;2023-05-17T12:31:40;101831.84;;;22.64;44.15
48872;BME280;36154;51.674;7.824;2023-05-17T12:34:07;101827.47;;;22.66;44.06
48872;BME280;36154;51.674;7.824;2023-05-17T12:36:34;101824.88;;;22.66;43.98
48872;BME280;36154;51.674;7.824;2023-05-17T12:39:02;101835.25;;;22.66;44.14
48872;BME280;36154;51.674;7.824;2023-05-17T12:41:30;101827.44;;;22.67;43.98
48872;BME280;36154;51.674;7.824;2023-05-17T12:47:18;101838.63;;;22.71;43.80
48872;BME280;36154;51.674;7.824;2023-05-17T12:49:56;101833.44;;;22.71;43.67
48872;BME280;36154;51.674;7.824;2023-05-17T12:52:24;101835.22;;;22.69;43.50
48872;BME280;36154;51.674;7.824;2023-05-17T12:54:49;101828.31;;;22.68;43.68
48872;BME280;36154;51.674;7.824;2023-05-17T12:57:16;101836.94;;;22.70;43.73
48872;BME280;36154;51.674;7.824;2023-05-17T12:59:53;101837.78;;;22.70;43.75
48872;BME280;36154;51.674;7.824;2023-05-17T13:02:19;101829.16;;;22.70;43.66
48872;BME280;36154;51.674;7.824;2023-05-17T13:04:44;101833.44;;;22.71;43.44
48872;BME280;36154;51.674;7.824;2023-05-17T13:07:10;101830.78;;;22.74;43.56
48872;BME280;36154;51.674;7.824;2023-05-17T13:09:45;101830.75;;;22.76;43.42
48872;BME280;36154;51.674;7.824;2023-05-17T13:12:21;101832.47;;;22.77;43.46
48872;BME280;36154;51.674;7.824;2023-05-17T13:14:48;101831.59;;;22.76;43.25
48872;BME280;36154;51.674;7.824;2023-05-17T13:17:16;101830.72;;;22.77;43.31
48872;BME280;36154;51.674;7.824;2023-05-17T13:19:43;101829.84;;;22.78;43.35
48872;BME280;36154;51.674;7.824;2023-05-17T13:22:09;101833.31;;;22.77;43.23
48872;BME280;36154;51.674;7.824;2023-05-17T13:24:35;101826.38;;;22.78;43.24
48872;BME280;36154;51.674;7.824;2023-05-17T13:27:02;101841.06;;;22.80;43.12